createdAt,value
2023-05-24T00:01:02.591Z,49.08
2023-05-24T00:03:31.057Z,47.88
2023-05-24T00:06:00.726Z,48.33
2023-05-24T00:08:28.856Z,48.28
2023-05-24T00:10:57.131Z,47.13
2023-05-24T00:13:25.184Z,48.72
2023-05-24T00:15:53.618Z,47.97
2023-05-24T00:18:21.670Z,47.42
2023-05-24T00:20:50.194Z,48.20
2023-05-24T00:23:19.684Z,50.20
2023-05-24T00:25:48.112Z,49.92
2023-05-24T00:28:16.430Z,51.13
2023-05-24T00:30:44.845Z,50.95
2023-05-24T00:33:13.116Z,50.10
2023-05-24T00:35:41.347Z,48.88
2023-05-24T00:38:09.711Z,49.83
2023-05-24T00:40:39.168Z,49.42
2023-05-24T00:43:07.130Z,50.05
2023-05-24T00:45:35.298Z,50.50
2023-05-24T00:48:04.197Z,51.35
2023-05-24T00:50:32.522Z,49.05
2023-05-24T00:53:03.605Z,50.25
2023-05-24T00:55:32.061Z,50.22
2023-05-24T00:58:02.310Z,49.08
2023-05-24T01:00:31.643Z,48.83
2023-05-24T01:03:01.258Z,49.05
2023-05-24T01:05:29.414Z,48.15
2023-05-24T01:08:09.939Z,48.47
2023-05-24T01:10:52.348Z,48.83
2023-05-24T01:13:28.115Z,48.25
2023-05-24T01:16:02.770Z,47.85
2023-05-24T01:18:35.046Z,48.50
2023-05-24T01:21:17.892Z,46.67
2023-05-24T01:23:51.447Z,47.92
2023-05-24T01:26:27.257Z,47.28
2023-05-24T01:28:57.415Z,47.58
2023-05-24T01:31:25.660Z,46.75
2023-05-24T01:33:53.861Z,46.70
2023-05-24T01:36:22.345Z,46.72
2023-05-24T01:38:51.995Z,45.97
2023-05-24T01:41:41.350Z,47.88
2023-05-24T01:44:20.149Z,45.67
2023-05-24T01:46:52.345Z,46.22
2023-05-24T01:49:24.439Z,46.80
2023-05-24T01:51:57.839Z,45.83
2023-05-24T01:54:28.001Z,46.25
2023-05-24T01:56:58.678Z,45.65
2023-05-24T01:59:31.193Z,45.10
2023-05-24T02:01:59.409Z,45.55
2023-05-24T02:04:28.109Z,46.42
2023-05-24T02:06:56.163Z,46.95
2023-05-24T02:09:24.663Z,45.83
2023-05-24T02:11:52.713Z,45.78
2023-05-24T02:14:20.986Z,45.53
2023-05-24T02:16:50.933Z,46.30
2023-05-24T02:19:19.179Z,45.22
2023-05-24T02:21:47.225Z,46.83
2023-05-24T02:24:15.300Z,46.17
2023-05-24T02:26:43.511Z,45.42
2023-05-24T02:29:11.600Z,46.15
2023-05-24T02:31:39.762Z,46.15
2023-05-24T02:34:09.382Z,46.65
2023-05-24T02:36:37.581Z,45.63
2023-05-24T02:39:06.229Z,46.60
2023-05-24T02:41:34.330Z,46.10
2023-05-24T02:44:02.337Z,45.58
2023-05-24T02:46:30.506Z,45.58
2023-05-24T02:48:58.698Z,46.42
2023-05-24T02:51:28.159Z,46.70
2023-05-24T02:53:56.268Z,47.47
2023-05-24T02:56:24.326Z,46.97
2023-05-24T02:58:54.343Z,45.30
2023-05-24T03:01:22.863Z,46.55
2023-05-24T03:03:51.102Z,45.95
2023-05-24T03:06:19.199Z,46.35
2023-05-24T03:08:49.789Z,45.45
2023-05-24T03:11:22.133Z,46.15
2023-05-24T03:13:50.638Z,47.60
2023-05-24T03:16:19.979Z,46.00
2023-05-24T03:18:50.629Z,46.75
2023-05-24T03:21:20.976Z,46.03
2023-05-24T03:23:51.049Z,47.33
2023-05-24T03:26:20.693Z,46.25
2023-05-24T03:28:50.720Z,45.72
2023-05-24T03:31:20.942Z,45.65
2023-05-24T03:33:49.075Z,46.35
2023-05-24T03:36:17.038Z,45.70
2023-05-24T03:38:45.296Z,46.45
2023-05-24T03:41:14.679Z,47.55
2023-05-24T03:43:42.817Z,45.95
2023-05-24T03:46:11.174Z,46.80
2023-05-24T03:48:39.408Z,46.88
2023-05-24T03:51:09.304Z,46.28
2023-05-24T03:53:37.386Z,44.67
2023-05-24T03:56:05.632Z,45.38
2023-05-24T03:58:35.997Z,45.05
2023-05-24T04:01:04.095Z,46.55
2023-05-24T04:03:34.278Z,45.28
2023-05-24T04:06:02.683Z,45.22
2023-05-24T04:08:31.514Z,45.20
2023-05-24T04:11:00.003Z,43.60
2023-05-24T04:13:28.486Z,43.33
2023-05-24T04:15:58.010Z,42.97
2023-05-24T04:18:26.258Z,42.72
2023-05-24T04:20:54.483Z,42.22
2023-05-24T04:23:22.600Z,41.70
2023-05-24T04:25:51.122Z,40.75
2023-05-24T04:28:22.219Z,42.63
2023-05-24T04:30:50.363Z,41.22
2023-05-24T04:33:20.543Z,41.70
2023-05-24T04:35:48.524Z,41.47
2023-05-24T04:38:16.965Z,40.53
2023-05-24T04:40:45.488Z,40.65
2023-05-24T04:43:14.680Z,39.22
2023-05-24T04:45:43.049Z,40.20
2023-05-24T04:48:11.304Z,40.47
2023-05-24T04:50:41.200Z,40.05
2023-05-24T04:53:09.593Z,39.72
2023-05-24T04:55:37.672Z,39.78
2023-05-24T04:58:05.757Z,41.13
2023-05-24T05:00:33.956Z,42.20
2023-05-24T05:03:03.928Z,41.22
2023-05-24T05:05:32.205Z,41.20
2023-05-24T05:08:02.134Z,40.65
2023-05-24T05:10:30.474Z,41.03
2023-05-24T05:12:58.773Z,40.35
2023-05-24T05:15:26.841Z,40.97
2023-05-24T05:17:55.415Z,41.30
2023-05-24T05:20:24.195Z,41.00
2023-05-24T05:22:52.167Z,40.38
2023-05-24T05:25:22.160Z,40.33
2023-05-24T05:27:50.558Z,40.30
2023-05-24T05:30:18.701Z,40.00
2023-05-24T05:32:47.450Z,40.00
2023-05-24T05:35:15.640Z,39.80
2023-05-24T05:37:43.758Z,40.08
2023-05-24T05:40:12.844Z,40.60
2023-05-24T05:42:42.485Z,40.22
2023-05-24T05:45:11.141Z,40.95
2023-05-24T05:47:39.669Z,40.75
2023-05-24T05:50:08.864Z,40.13
2023-05-24T05:52:37.288Z,41.35
2023-05-24T05:55:06.246Z,40.50
2023-05-24T05:57:35.593Z,40.85
2023-05-24T06:00:05.892Z,40.53
2023-05-24T06:02:34.400Z,41.00
2023-05-24T06:05:03.278Z,41.15
2023-05-24T06:07:32.112Z,42.78
2023-05-24T06:10:00.191Z,42.17
2023-05-24T06:12:28.396Z,41.67
2023-05-24T06:14:57.615Z,42.97
2023-05-24T06:17:28.054Z,42.60
2023-05-24T06:19:56.264Z,41.92
2023-05-24T06:22:24.529Z,42.33
2023-05-24T06:24:52.849Z,43.13
2023-05-24T06:27:21.399Z,42.03
2023-05-24T06:29:49.577Z,44.63
2023-05-24T06:32:18.227Z,43.25
2023-05-24T06:34:47.850Z,43.20
2023-05-24T06:37:16.212Z,44.50
2023-05-24T06:39:44.256Z,42.65
2023-05-24T06:42:12.468Z,44.25
2023-05-24T06:44:40.490Z,43.38
2023-05-24T06:47:09.388Z,41.47
2023-05-24T06:49:38.393Z,43.28
2023-05-24T06:52:08.992Z,42.85
2023-05-24T06:54:37.750Z,42.35
2023-05-24T06:57:06.433Z,42.05
2023-05-24T06:59:34.586Z,41.78
2023-05-24T07:02:03.938Z,43.03
2023-05-24T07:04:32.408Z,44.22
2023-05-24T07:07:00.621Z,43.58
2023-05-24T07:09:30.174Z,42.85
2023-05-24T07:11:58.448Z,43.50
2023-05-24T07:14:27.518Z,43.10
2023-05-24T07:16:57.570Z,43.83
2023-05-24T07:19:29.898Z,44.35
2023-05-24T07:21:58.134Z,44.35
2023-05-24T07:24:26.333Z,43.28
2023-05-24T07:26:56.945Z,43.60
2023-05-24T07:29:26.311Z,44.08
2023-05-24T07:31:56.795Z,45.00
2023-05-24T07:34:27.629Z,42.90
2023-05-24T07:36:55.747Z,43.33
2023-05-24T07:39:25.243Z,43.38
2023-05-24T07:41:54.942Z,43.40
2023-05-24T07:44:26.219Z,41.90
2023-05-24T07:46:55.779Z,41.08
2023-05-24T07:49:24.165Z,40.95
2023-05-24T07:51:53.109Z,42.33
2023-05-24T07:54:21.548Z,41.53
2023-05-24T07:56:50.451Z,42.03
2023-05-24T07:59:20.140Z,42.58
2023-05-24T08:01:48.368Z,39.55
2023-05-24T08:04:16.912Z,39.75
2023-05-24T08:06:48.008Z,41.22
2023-05-24T08:09:16.771Z,44.00
2023-05-24T08:11:44.954Z,43.65
2023-05-24T08:14:13.247Z,32.88
2023-05-24T08:16:43.024Z,26.05
2023-05-24T08:19:11.082Z,17.10
2023-05-24T08:21:39.460Z,12.18
2023-05-24T08:24:09.424Z,10.63
2023-05-24T08:26:38.188Z,6.15
2023-05-24T08:29:06.330Z,5.10
2023-05-24T08:31:35.593Z,4.13
2023-05-24T08:34:06.660Z,4.28
2023-05-24T08:36:39.013Z,3.58
2023-05-24T08:39:07.324Z,3.90
2023-05-24T08:41:37.964Z,4.03
2023-05-24T08:44:07.895Z,3.83
2023-05-24T08:46:37.159Z,3.30
2023-05-24T08:49:07.648Z,3.10
2023-05-24T08:51:38.719Z,3.22
2023-05-24T08:54:07.807Z,3.50
2023-05-24T08:56:36.411Z,3.95
2023-05-24T08:59:04.467Z,4.00
2023-05-24T09:01:34.775Z,3.55
2023-05-24T09:04:07.396Z,4.30
2023-05-24T09:06:36.170Z,3.03
2023-05-24T09:09:05.930Z,3.35
2023-05-24T09:11:36.841Z,3.10
2023-05-24T09:14:06.203Z,3.40
2023-05-24T09:16:34.438Z,3.28
2023-05-24T09:19:03.541Z,2.92
2023-05-24T09:21:34.001Z,3.00
2023-05-24T09:24:02.331Z,3.50
2023-05-24T09:26:31.142Z,4.68
2023-05-24T09:28:59.330Z,3.10
2023-05-24T09:31:35.038Z,3.63
2023-05-24T09:34:03.203Z,3.10
2023-05-24T09:36:34.896Z,3.58
2023-05-24T09:39:09.603Z,3.22
2023-05-24T09:41:37.782Z,3.03
2023-05-24T09:44:11.829Z,3.90
2023-05-24T09:46:39.993Z,2.80
2023-05-24T09:49:08.611Z,3.20
2023-05-24T09:51:39.910Z,2.80
2023-05-24T09:54:08.311Z,2.90
2023-05-24T09:56:41.578Z,3.80
2023-05-24T09:59:10.377Z,2.88
2023-05-24T10:01:38.942Z,2.85
2023-05-24T10:04:10.014Z,3.53
2023-05-24T10:06:43.151Z,3.70
2023-05-24T10:09:14.390Z,3.38
2023-05-24T10:11:43.342Z,2.92
2023-05-24T10:14:11.963Z,3.45
2023-05-24T10:16:40.451Z,3.28
2023-05-24T10:19:08.732Z,3.25
2023-05-24T10:21:42.910Z,2.95
2023-05-24T10:24:12.477Z,3.00
2023-05-24T10:26:42.613Z,3.10
2023-05-24T10:29:17.958Z,2.85
2023-05-24T10:31:47.275Z,2.88
2023-05-24T10:34:15.848Z,2.97
2023-05-24T10:36:46.035Z,2.80
2023-05-24T10:39:14.045Z,2.90
2023-05-24T10:41:43.413Z,2.75
2023-05-24T10:44:14.974Z,2.67
2023-05-24T10:47:12.238Z,2.78
2023-05-24T10:49:49.210Z,2.60
2023-05-24T10:52:18.974Z,2.92
2023-05-24T10:55:08.151Z,3.00
2023-05-24T10:57:36.981Z,2.58
2023-05-24T11:03:04.283Z,2.90
2023-05-24T11:05:37.029Z,3.42
2023-05-24T11:08:09.559Z,3.13
2023-05-24T11:10:38.470Z,3.00
2023-05-24T11:13:09.694Z,3.00
2023-05-24T11:15:38.334Z,2.40
2023-05-24T11:18:16.400Z,3.25
2023-05-24T11:20:45.955Z,3.40
2023-05-24T11:23:16.496Z,3.72
2023-05-24T11:25:44.824Z,2.75
2023-05-24T11:28:13.796Z,3.08
2023-05-24T11:30:42.285Z,2.90
2023-05-24T11:33:18.811Z,3.58
2023-05-24T11:35:47.265Z,3.00
2023-05-24T11:38:17.882Z,2.75
2023-05-24T11:40:47.266Z,2.90
2023-05-24T11:43:17.011Z,2.90
2023-05-24T11:45:46.866Z,3.22
2023-05-24T11:48:15.250Z,3.13
2023-05-24T11:50:49.854Z,3.00
2023-05-24T11:53:22.644Z,2.97
2023-05-24T11:55:51.502Z,3.17
2023-05-24T11:58:23.995Z,3.38
2023-05-24T12:00:52.856Z,2.80
2023-05-24T12:03:22.014Z,3.40
2023-05-24T12:05:51.434Z,2.88
2023-05-24T12:08:21.253Z,3.38
2023-05-24T12:10:51.743Z,3.10
2023-05-24T12:13:24.588Z,3.20
2023-05-24T12:15:55.828Z,2.88
2023-05-24T12:18:26.396Z,3.67
2023-05-24T12:20:54.610Z,4.22
2023-05-24T12:23:27.794Z,3.17
2023-05-24T12:25:59.916Z,3.70
2023-05-24T12:28:28.674Z,3.72
2023-05-24T12:30:57.198Z,3.58
2023-05-24T12:33:25.977Z,3.50
2023-05-24T12:35:56.456Z,3.35
2023-05-24T12:38:29.443Z,3.17
2023-05-24T12:43:30.601Z,3.47
2023-05-24T12:45:58.746Z,3.55
2023-05-24T12:48:26.874Z,3.45
2023-05-24T12:50:58.048Z,3.30
2023-05-24T12:53:27.879Z,3.15
2023-05-24T12:56:03.510Z,3.20
2023-05-24T12:58:37.779Z,3.70
2023-05-24T13:01:13.918Z,4.18
2023-05-24T13:03:48.018Z,3.20
2023-05-24T13:06:16.491Z,4.57
2023-05-24T13:08:48.080Z,3.13
2023-05-24T13:11:16.600Z,3.33
2023-05-24T13:13:47.600Z,3.88
2023-05-24T13:16:15.921Z,3.88
2023-05-24T13:18:46.357Z,3.17
2023-05-24T13:21:14.807Z,4.05
2023-05-24T13:23:47.431Z,3.58
2023-05-24T13:26:17.891Z,3.20
2023-05-24T13:29:04.858Z,3.60
2023-05-24T13:31:35.106Z,3.67
2023-05-24T13:34:03.647Z,4.05
2023-05-24T13:36:31.759Z,3.70
2023-05-24T13:39:14.055Z,3.63
2023-05-24T13:41:45.440Z,3.83
2023-05-24T13:44:14.027Z,3.47
2023-05-24T13:46:42.587Z,3.20
2023-05-24T13:49:11.992Z,4.03
2023-05-24T13:51:42.413Z,3.90
2023-05-24T13:54:12.714Z,3.70
2023-05-24T13:56:44.457Z,4.13
2023-05-24T13:59:17.316Z,3.38
2023-05-24T14:01:46.644Z,3.50
2023-05-24T14:04:16.986Z,4.35
2023-05-24T14:06:45.315Z,3.90
2023-05-24T14:09:14.420Z,3.50
2023-05-24T14:11:42.812Z,3.80
2023-05-24T14:16:51.836Z,3.20
2023-05-24T14:19:20.153Z,3.00
2023-05-24T14:21:48.728Z,3.90
2023-05-24T14:24:21.062Z,4.22
2023-05-24T14:26:49.423Z,4.20
2023-05-24T14:29:20.545Z,3.28
2023-05-24T14:31:52.826Z,3.42
2023-05-24T14:34:24.221Z,3.63
2023-05-24T14:36:52.562Z,4.45
2023-05-24T14:39:20.896Z,3.25
2023-05-24T14:41:49.092Z,3.72
2023-05-24T14:44:17.970Z,3.47
2023-05-24T14:46:49.612Z,3.33
2023-05-24T14:49:18.362Z,3.78
2023-05-24T14:51:49.422Z,2.95
2023-05-24T14:54:17.995Z,3.65
2023-05-24T14:56:49.055Z,3.83
2023-05-24T14:59:17.201Z,3.45
2023-05-24T15:01:45.415Z,2.92
2023-05-24T15:04:15.154Z,3.88
2023-05-24T15:06:43.460Z,3.35
2023-05-24T15:09:13.135Z,3.88
2023-05-24T15:11:43.502Z,3.45
2023-05-24T15:14:11.712Z,2.90
2023-05-24T15:16:40.053Z,2.70
2023-05-24T15:19:09.218Z,3.10
2023-05-24T15:21:38.913Z,3.35
2023-05-24T15:24:07.781Z,3.35
2023-05-24T15:26:39.242Z,3.53
2023-05-24T15:29:07.535Z,3.00
2023-05-24T15:31:36.485Z,2.72
2023-05-24T15:34:05.582Z,3.20
2023-05-24T15:36:36.768Z,3.58
2023-05-24T15:39:06.615Z,3.28
2023-05-24T15:41:35.302Z,3.08
2023-05-24T15:44:08.605Z,3.70
2023-05-24T15:46:37.841Z,3.38
2023-05-24T15:49:06.280Z,4.55
2023-05-24T15:52:03.023Z,3.47
2023-05-24T15:54:24.079Z,3.25
2023-05-24T15:56:52.457Z,3.50
2023-05-24T15:59:23.585Z,3.30
2023-05-24T16:01:51.990Z,3.38
2023-05-24T16:04:24.638Z,3.15
2023-05-24T16:06:56.522Z,3.47
2023-05-24T16:09:32.823Z,3.30
2023-05-24T16:12:11.054Z,2.92
2023-05-24T16:14:39.363Z,3.28
2023-05-24T16:17:10.529Z,3.25
2023-05-24T16:19:38.636Z,3.28
2023-05-24T16:22:07.973Z,3.15
2023-05-24T16:24:37.681Z,3.55
2023-05-24T16:27:06.873Z,3.63
2023-05-24T16:29:37.040Z,3.50
2023-05-24T16:32:05.846Z,3.47
2023-05-24T16:34:44.831Z,3.63
2023-05-24T16:37:23.146Z,3.63
2023-05-24T16:39:52.889Z,3.05
2023-05-24T16:42:21.361Z,3.60
2023-05-24T16:44:49.672Z,3.58
2023-05-24T16:47:18.089Z,3.53
2023-05-24T16:49:46.408Z,3.33
2023-05-24T16:52:14.553Z,3.05
2023-05-24T16:54:45.963Z,2.97
2023-05-24T16:57:15.892Z,3.70
2023-05-24T16:59:45.543Z,3.63
2023-05-24T17:02:14.181Z,3.05
2023-05-24T17:04:42.665Z,3.03
2023-05-24T17:07:10.865Z,3.53
2023-05-24T17:09:39.397Z,3.30
2023-05-24T17:12:07.866Z,2.80
2023-05-24T17:14:38.291Z,3.30
2023-05-24T17:17:08.966Z,3.13
2023-05-24T17:19:42.025Z,3.53
2023-05-24T17:22:10.279Z,3.65
2023-05-24T17:24:41.793Z,3.85
2023-05-24T17:27:10.257Z,2.88
2023-05-24T17:29:46.907Z,3.03
2023-05-24T17:32:24.436Z,3.50
2023-05-24T17:34:52.830Z,3.60
2023-05-24T17:37:21.103Z,3.30
2023-05-24T17:39:52.346Z,3.75
2023-05-24T17:42:20.525Z,3.55
2023-05-24T17:44:50.148Z,3.10
2023-05-24T17:47:18.464Z,3.92
2023-05-24T17:49:46.607Z,3.35
2023-05-24T17:52:15.142Z,3.05
2023-05-24T17:54:43.334Z,3.60
2023-05-24T17:57:11.517Z,3.35
2023-05-24T17:59:42.628Z,3.25
2023-05-24T18:02:12.367Z,3.45
2023-05-24T18:04:40.980Z,3.08
2023-05-24T18:07:09.362Z,3.75
2023-05-24T18:09:38.901Z,3.22
2023-05-24T18:12:09.636Z,4.05
2023-05-24T18:14:38.191Z,3.78
2023-05-24T18:17:06.427Z,4.00
2023-05-24T18:19:36.520Z,3.53
2023-05-24T18:22:05.061Z,3.65
2023-05-24T18:24:36.169Z,3.05
2023-05-24T18:27:05.199Z,3.13
2023-05-24T18:29:34.897Z,3.60
2023-05-24T18:32:03.547Z,3.85
2023-05-24T18:34:32.251Z,3.58
2023-05-24T18:37:02.888Z,4.35
2023-05-24T18:39:31.587Z,3.42
2023-05-24T18:41:59.898Z,3.88
2023-05-24T18:44:28.065Z,3.33
2023-05-24T18:46:59.510Z,2.78
2023-05-24T18:49:27.817Z,3.42
2023-05-24T18:51:56.249Z,3.40
2023-05-24T18:54:25.772Z,3.20
2023-05-24T18:56:54.095Z,3.72
2023-05-24T18:59:29.005Z,3.78
2023-05-24T19:01:57.245Z,3.53
2023-05-24T19:04:25.875Z,3.78
2023-05-24T19:06:54.473Z,3.20
2023-05-24T19:09:22.686Z,3.10
2023-05-24T19:11:52.546Z,3.20
2023-05-24T19:14:22.269Z,3.35
2023-05-24T19:16:50.435Z,3.42
2023-05-24T19:19:19.764Z,3.15
2023-05-24T19:21:48.093Z,3.58
2023-05-24T19:24:16.387Z,3.30
2023-05-24T19:26:44.504Z,3.28
2023-05-24T19:29:14.331Z,3.13
2023-05-24T19:31:42.425Z,2.83
2023-05-24T19:34:10.842Z,3.08
2023-05-24T19:36:39.128Z,3.22
2023-05-24T19:39:07.581Z,3.05
2023-05-24T19:41:39.171Z,2.80
2023-05-24T19:44:07.433Z,3.13
2023-05-24T19:46:38.200Z,3.65
2023-05-24T19:49:06.544Z,3.40
2023-05-24T19:51:35.023Z,3.42
2023-05-24T19:54:03.292Z,2.90
2023-05-24T19:56:32.114Z,3.03
2023-05-24T19:59:01.616Z,3.28
2023-05-24T20:01:37.097Z,3.38
2023-05-24T20:04:14.026Z,4.18
2023-05-24T20:06:44.423Z,3.70
2023-05-24T20:09:12.877Z,3.85
2023-05-24T20:11:41.258Z,3.40
2023-05-24T20:14:09.562Z,4.30
2023-05-24T20:16:37.736Z,3.53
2023-05-24T20:19:07.671Z,4.43
2023-05-24T20:21:36.721Z,5.45
2023-05-24T20:24:04.920Z,4.25
2023-05-24T20:26:35.051Z,4.07
2023-05-24T20:29:03.974Z,4.35
2023-05-24T20:31:32.158Z,5.60
2023-05-24T20:34:00.296Z,6.43
2023-05-24T20:36:29.839Z,8.82
2023-05-24T20:38:58.253Z,12.18
2023-05-24T20:41:26.631Z,16.17
2023-05-24T20:43:55.161Z,21.05
2023-05-24T20:46:23.675Z,23.90
2023-05-24T20:48:51.993Z,21.77
2023-05-24T20:51:20.344Z,21.02
2023-05-24T20:53:52.160Z,23.25
2023-05-24T20:56:21.425Z,23.10
2023-05-24T20:58:53.012Z,21.88
2023-05-24T21:01:21.842Z,21.65
2023-05-24T21:03:50.083Z,21.67
2023-05-24T21:06:20.710Z,22.63
2023-05-24T21:08:51.116Z,28.17
2023-05-24T21:11:19.194Z,35.45
2023-05-24T21:13:47.338Z,39.50
2023-05-24T21:16:15.498Z,42.58
2023-05-24T21:18:43.470Z,43.65
2023-05-24T21:21:13.236Z,45.22
2023-05-24T21:23:41.334Z,44.72
2023-05-24T21:26:11.108Z,44.85
2023-05-24T21:28:39.326Z,43.70
2023-05-24T21:31:08.315Z,43.60
2023-05-24T21:33:37.626Z,42.28
2023-05-24T21:36:06.018Z,39.25
2023-05-24T21:38:34.259Z,37.95
2023-05-24T21:41:02.321Z,40.83
2023-05-24T21:43:31.818Z,42.80
2023-05-24T21:45:59.904Z,41.05
2023-05-24T21:48:27.902Z,43.45
2023-05-24T21:50:55.969Z,45.30
2023-05-24T21:53:24.124Z,45.55
2023-05-24T21:55:52.234Z,45.20
2023-05-24T21:58:20.303Z,43.50
2023-05-24T22:00:51.004Z,40.60
2023-05-24T22:03:19.148Z,32.97
2023-05-24T22:05:47.495Z,29.63
2023-05-24T22:08:15.605Z,32.00
2023-05-24T22:10:43.654Z,34.38
2023-05-24T22:13:11.608Z,36.30
2023-05-24T22:15:39.998Z,38.05
2023-05-24T22:18:09.784Z,40.00
2023-05-24T22:20:38.165Z,39.90
2023-05-24T22:23:06.771Z,44.50
2023-05-24T22:25:35.191Z,43.38
2023-05-24T22:28:03.260Z,45.10
2023-05-24T22:30:32.158Z,43.13
2023-05-24T22:33:00.212Z,43.42
2023-05-24T22:35:29.647Z,42.95
2023-05-24T22:37:58.214Z,43.58
2023-05-24T22:40:26.881Z,45.60
2023-05-24T22:42:54.898Z,47.00
2023-05-24T22:45:23.076Z,46.53
2023-05-24T22:47:51.104Z,49.25
2023-05-24T22:50:19.230Z,48.10
2023-05-24T22:52:49.156Z,47.72
2023-05-24T22:55:17.386Z,48.95
2023-05-24T22:57:45.394Z,49.72
2023-05-24T23:00:15.594Z,50.70
2023-05-24T23:02:44.204Z,52.45
2023-05-24T23:05:12.376Z,52.80
2023-05-24T23:07:40.492Z,53.13
2023-05-24T23:10:11.156Z,54.55
2023-05-24T23:12:42.413Z,53.70
2023-05-24T23:15:11.664Z,52.92
2023-05-24T23:17:40.149Z,53.08
2023-05-24T23:20:10.605Z,53.42
2023-05-24T23:22:39.010Z,51.58
2023-05-24T23:25:10.080Z,51.67
2023-05-24T23:27:38.277Z,51.03
2023-05-24T23:30:07.901Z,54.03
2023-05-24T23:32:36.465Z,52.28
2023-05-24T23:35:04.763Z,54.03
2023-05-24T23:37:32.946Z,53.30
2023-05-24T23:40:06.332Z,52.30
2023-05-24T23:42:36.563Z,51.97
2023-05-24T23:45:05.068Z,52.03
2023-05-24T23:47:33.177Z,53.25
2023-05-24T23:50:01.255Z,51.85
2023-05-24T23:52:29.301Z,51.03
2023-05-24T23:54:57.342Z,53.55
2023-05-24T23:57:27.067Z,52.67
2023-05-24T23:59:56.694Z,53.55
